Cereal, Canada
Current Conditions -  °F | °C
As of 2:00 AM on Monday 20 Oct 2014 (Local Time) from CYKY Reporting Station
Scattered Clouds Scattered Clouds  
Wind Chill: 42°   Ceiling: Unl
Heat Index: 46°   Visibility: 15mi
Dew Point: 37°   Wind: 9mph
Humidity: 71%   Direction: 160°SSE
Pressure: 29.76"   Gusts: NA
Location:  51.42°N, 110.8°W
Report Text: CYKY 200800Z 16008KT 15SM FEW050 SCT240 08/03 A2976 RMK SC1CI2 SLP084
Loading
Personal Weather Stations






























Interactive Weather Map
Tropical Storm Tracking
New forecast layout! Learn more

10-Day Weather Forecast

Advertisements
Track Severe Weather on mobile